Time;durP1;ratioP1;P1;durP2;ratioP2;P2;SDS_P1;SDS_P2;PMS_P1;PMS_P2;Temp;Humidity;BMP_temperature;BMP_pressure;BME280_temperature;BME280_humidity;BME280_pressure;Samples;Min_cycle;Max_cycle;Signal;HPM_P1;HPM_P2
2022/01/01 00:01:04;;;;;;;6.80;5.40;;;;;;;7.98;84.81;97946.38;101230;1307;75550;-18
2022/01/01 00:03:33;;;;;;;9.40;5.90;;;;;;;7.99;84.88;97949.77;101347;1306;74344;-18
2022/01/01 00:06:08;;;;;;;10.80;7.40;;;;;;;8.25;84.01;97953.52;101180;1307;72411;-18
2022/01/01 00:08:36;;;;;;;9.00;6.90;;;;;;;8.09;84.53;97945.97;101499;1307;61123;-18
2022/01/01 00:11:04;;;;;;;7.60;5.30;;;;;;;7.78;85.96;97941.71;101603;1310;61615;-18
2022/01/01 00:13:51;;;;;;;8.90;6.30;;;;;;;7.96;85.50;97947.38;101533;1310;74267;-18
2022/01/01 00:16:20;;;;;;;10.20;5.20;;;;;;;8.18;84.53;97933.88;101576;1310;76175;-18
2022/01/01 00:18:50;;;;;;;10.30;7.80;;;;;;;8.23;84.09;97943.52;101524;1307;75199;-18
2022/01/01 00:21:19;;;;;;;7.50;6.00;;;;;;;7.99;85.09;97940.65;101483;1310;62178;-19
2022/01/01 00:23:47;;;;;;;7.40;5.60;;;;;;;8.04;85.04;97948.61;101403;1306;61139;-18
2022/01/01 00:26:16;;;;;;;11.00;6.20;;;;;;;8.29;83.90;97948.54;101528;1310;73388;-18
2022/01/01 00:28:44;;;;;;;8.20;5.60;;;;;;;8.32;83.79;97943.43;101483;1307;75967;-18
2022/01/01 00:31:12;;;;;;;7.80;5.90;;;;;;;8.10;84.55;97927.13;101249;1307;73360;-18
2022/01/01 00:33:41;;;;;;;7.40;5.10;;;;;;;8.05;85.02;97916.36;101540;1307;61903;-18
2022/01/01 00:36:09;;;;;;;9.10;5.50;;;;;;;8.36;83.75;97937.17;101523;1307;62191;-19
2022/01/01 00:38:38;;;;;;;7.50;5.30;;;;;;;8.38;83.36;97936.84;101599;1307;74798;-19
2022/01/01 00:41:07;;;;;;;11.60;6.70;;;;;;;8.21;83.96;97939.17;101493;1313;75813;-18
2022/01/01 00:43:35;;;;;;;6.70;5.10;;;;;;;8.09;84.72;97926.54;101249;1307;74343;-18
2022/01/01 00:46:03;;;;;;;10.10;6.30;;;;;;;8.27;84.13;97928.09;101476;1306;61845;-18
2022/01/01 00:48:32;;;;;;;10.80;6.70;;;;;;;8.29;83.99;97929.61;101490;1307;61173;-19
2022/01/01 00:51:20;;;;;;;9.20;5.20;;;;;;;8.02;85.16;97925.95;101495;1311;75349;-18
2022/01/01 00:53:49;;;;;;;6.90;4.70;;;;;;;8.14;84.79;97934.81;101382;1311;74786;-18
2022/01/01 00:56:18;;;;;;;7.30;5.00;;;;;;;8.32;83.96;97931.80;101291;1310;73406;-18
2022/01/01 00:58:46;;;;;;;6.40;4.10;;;;;;;8.20;84.27;97927.30;101547;1307;61158;-18
2022/01/01 01:01:14;;;;;;;7.20;5.00;;;;;;;8.11;84.32;97931.71;101515;1307;62277;-18
2022/01/01 01:03:43;;;;;;;8.80;5.00;;;;;;;8.02;84.96;97927.52;101590;1307;75602;-18
2022/01/01 01:06:13;;;;;;;7.30;3.30;;;;;;;8.29;84.16;97922.73;101565;1307;75929;-18
2022/01/01 01:08:42;;;;;;;9.40;5.80;;;;;;;8.38;83.39;97933.70;101175;1310;74471;-18
2022/01/01 01:11:11;;;;;;;4.90;4.20;;;;;;;8.11;84.41;97930.36;101272;1314;61150;-18
2022/01/01 01:13:42;;;;;;;6.40;5.20;;;;;;;8.06;84.52;97937.73;101308;1315;62035;-19
2022/01/01 01:16:11;;;;;;;6.00;4.40;;;;;;;8.27;84.11;97933.40;101289;1306;75520;-19
2022/01/01 01:18:41;;;;;;;7.60;5.30;;;;;;;8.32;83.70;97924.40;101580;1307;76046;-19
2022/01/01 01:21:22;;;;;;;8.50;5.20;;;;;;;8.08;84.89;97925.27;101504;1307;74298;-19
2022/01/01 01:24:15;;;;;;;8.30;4.80;;;;;;;8.01;85.43;97927.64;101363;1310;62861;-19
2022/01/01 01:26:48;;;;;;;7.20;4.10;;;;;;;8.32;84.05;97925.42;101387;1310;61050;-19
2022/01/01 01:29:17;;;;;;;5.60;4.70;;;;;;;8.30;83.96;97901.38;101542;1310;74869;-18
2022/01/01 01:31:46;;;;;;;8.90;5.60;;;;;;;8.08;84.82;97900.39;101354;1310;75932;-18
2022/01/01 01:34:15;;;;;;;6.20;4.10;;;;;;;8.02;85.20;97922.00;101555;1307;74722;-19
2022/01/01 01:36:43;;;;;;;6.30;4.20;;;;;;;8.38;83.99;97927.96;101602;1307;61236;-19
2022/01/01 01:39:11;;;;;;;6.70;4.30;;;;;;;8.24;84.30;97917.30;101627;1308;61077;-19
2022/01/01 01:41:42;;;;;;;6.00;3.90;;;;;;;8.06;84.87;97905.88;101561;1307;75470;-18
2022/01/01 01:44:32;;;;;;;5.30;3.50;;;;;;;7.92;85.45;97920.15;101539;1310;75926;-18
2022/01/01 01:47:02;;;;;;;4.60;3.70;;;;;;;8.09;84.96;97907.89;101481;1306;74447;-19
2022/01/01 01:49:30;;;;;;;7.90;5.10;;;;;;;8.18;84.21;97909.36;101240;1306;61205;-19
2022/01/01 01:51:58;;;;;;;6.60;3.20;;;;;;;8.05;84.61;97911.06;101304;1307;61145;-18
2022/01/01 01:54:27;;;;;;;7.80;4.70;;;;;;;7.91;85.01;97896.36;101242;1310;74262;-18
2022/01/01 01:56:58;;;;;;;6.10;4.40;;;;;;;8.10;84.65;97900.58;101537;1307;73971;-19
2022/01/01 01:59:26;;;;;;;5.60;3.80;;;;;;;8.22;84.04;97896.52;101586;1307;73641;-19
2022/01/01 02:01:55;;;;;;;4.40;3.40;;;;;;;8.19;83.87;97899.40;101517;1310;62098;-19
2022/01/01 02:04:23;;;;;;;5.90;3.90;;;;;;;7.83;85.28;97895.34;101494;1310;61087;-18
2022/01/01 02:06:52;;;;;;;4.80;3.40;;;;;;;7.96;84.80;97900.40;101313;1310;74730;-18
2022/01/01 02:09:20;;;;;;;5.70;3.70;;;;;;;8.15;83.87;97898.34;101271;1307;75387;-18
2022/01/01 02:11:52;;;;;;;10.90;3.80;;;;;;;8.14;83.89;97908.66;101334;1313;74956;-19
2022/01/01 02:14:48;;;;;;;4.40;3.20;;;;;;;7.86;85.17;97892.48;101532;1314;61033;-19
2022/01/01 02:17:28;;;;;;;5.60;3.30;;;;;;;8.14;84.20;97899.38;101546;1310;61111;-19
2022/01/01 02:20:03;;;;;;;4.60;3.00;;;;;;;8.09;84.11;97889.61;101522;1310;75539;-18
2022/01/01 02:22:44;;;;;;;6.90;4.10;;;;;;;7.96;84.50;97896.98;101497;1310;73325;-19
2022/01/01 02:25:18;;;;;;;6.10;3.70;;;;;;;7.74;85.62;97889.93;101442;1313;74429;-18
2022/01/01 02:27:58;;;;;;;5.80;4.10;;;;;;;8.08;84.22;97894.68;101349;1307;61157;-19
2022/01/01 02:30:28;;;;;;;6.60;3.90;;;;;;;8.00;84.54;97892.29;101481;1309;61128;-19
2022/01/01 02:32:56;;;;;;;6.60;4.10;;;;;;;7.92;84.73;97896.92;101486;1310;74502;-19
2022/01/01 02:35:24;;;;;;;6.80;3.90;;;;;;;7.70;85.62;97878.72;101445;1314;76032;-19
2022/01/01 02:37:52;;;;;;;5.00;3.80;;;;;;;7.90;85.04;97887.48;101537;1307;74253;-19
2022/01/01 02:40:21;;;;;;;4.30;3.60;;;;;;;8.13;83.76;97885.92;101501;1307;62052;-19
2022/01/01 02:42:51;;;;;;;7.20;4.60;;;;;;;7.87;84.85;97882.49;101408;1307;62117;-19
2022/01/01 02:45:20;;;;;;;5.40;3.70;;;;;;;7.56;86.45;97891.42;101585;1307;73916;-19
2022/01/01 02:47:49;;;;;;;7.90;4.40;;;;;;;7.98;84.74;97887.25;101482;1310;74440;-19
2022/01/01 02:50:20;;;;;;;6.10;4.70;;;;;;;8.07;84.32;97880.96;101554;1307;74393;-19
2022/01/01 02:55:42;;;;;;;4.00;3.10;;;;;;;7.69;85.90;97883.41;99192;1336;612606;-24
2022/01/01 02:58:12;;;;;;;4.90;3.50;;;;;;;8.06;84.28;97892.91;100300;1325;61135;-25
2022/01/01 03:00:40;;;;;;;6.00;3.80;;;;;;;8.01;84.56;97880.28;100271;1322;61177;-25
2022/01/01 03:03:07;;;;;;;5.80;4.50;;;;;;;7.76;85.60;97894.17;100279;1323;73749;-24
2022/01/01 03:08:39;;;;;;;5.30;3.10;;;;;;;7.78;85.70;97900.59;99357;1334;616172;-24
2022/01/01 03:11:07;;;;;;;10.40;3.00;;;;;;;7.54;86.27;97892.14;100475;1323;61106;-25
2022/01/01 03:13:34;;;;;;;4.70;2.90;;;;;;;7.67;86.09;97902.05;100518;1327;61148;-26
2022/01/01 03:16:04;;;;;;;4.60;3.70;;;;;;;8.01;84.73;97888.35;100418;1319;73785;-26
2022/01/01 03:18:31;;;;;;;6.20;3.30;;;;;;;7.96;84.73;97893.45;100510;1327;75806;-25
2022/01/01 03:20:58;;;;;;;7.10;4.20;;;;;;;7.72;85.31;97907.83;100334;1323;198821;-26
2022/01/01 03:23:25;;;;;;;6.50;3.80;;;;;;;7.61;86.03;97890.30;100740;1316;62671;-25
2022/01/01 03:25:52;;;;;;;5.10;3.40;;;;;;;7.86;85.04;97899.87;100684;1320;61844;-25
2022/01/01 03:28:20;;;;;;;4.30;2.70;;;;;;;7.88;84.60;97907.15;100475;1319;71408;-23
2022/01/01 03:30:47;;;;;;;4.70;3.10;;;;;;;7.81;84.83;97907.29;100746;1320;74575;-23
2022/01/01 03:33:16;;;;;;;5.70;3.10;;;;;;;7.64;85.75;97907.89;101752;1307;74367;-23
2022/01/01 03:35:43;;;;;;;4.10;2.50;;;;;;;7.81;85.06;97911.27;101720;1306;61121;-23
2022/01/01 03:38:10;;;;;;;5.40;3.10;;;;;;;7.84;85.05;97918.18;101590;1310;61165;-23
2022/01/01 03:40:37;;;;;;;5.30;3.20;;;;;;;7.70;85.61;97923.27;101600;1313;75877;-23
2022/01/01 03:43:05;;;;;;;5.70;3.50;;;;;;;7.56;86.11;97933.93;101807;1307;75966;-23
2022/01/01 03:45:32;;;;;;;3.50;2.50;;;;;;;7.79;85.09;97933.84;101759;1307;74167;-23
2022/01/01 03:47:59;;;;;;;4.90;3.10;;;;;;;7.77;85.03;97942.13;101363;1308;61131;-23
2022/01/01 03:50:26;;;;;;;4.60;3.10;;;;;;;7.69;85.11;97940.11;101680;1307;61014;-23
2022/01/01 03:52:53;;;;;;;6.60;3.90;;;;;;;7.61;85.67;97942.67;101560;1307;74630;-23
2022/01/01 03:55:21;;;;;;;6.40;4.00;;;;;;;7.73;84.93;97955.80;101773;1307;75837;-23
2022/01/01 03:57:47;;;;;;;6.40;3.70;;;;;;;7.74;84.86;97951.74;101505;1307;73329;-24
2022/01/01 04:00:19;;;;;;;5.50;3.60;;;;;;;7.61;85.19;97954.25;101743;1307;61417;-23
2022/01/01 04:02:47;;;;;;;6.00;3.50;;;;;;;7.45;86.18;97960.45;101537;1307;61153;-23
2022/01/01 04:05:14;;;;;;;5.00;2.50;;;;;;;7.70;85.18;97959.85;101765;1306;74556;-23
2022/01/01 04:07:48;;;;;;;5.40;3.20;;;;;;;7.87;84.15;97972.38;101839;1304;74601;-23
2022/01/01 04:10:17;;;;;;;8.80;4.00;;;;;;;7.72;84.48;97969.16;101772;1310;72322;-23
2022/01/01 04:12:44;;;;;;;5.80;3.10;;;;;;;7.47;85.79;97969.27;101843;1308;61374;-23
2022/01/01 04:15:11;;;;;;;5.80;3.20;;;;;;;7.68;85.15;97972.09;101795;1308;61029;-24
2022/01/01 04:17:38;;;;;;;4.10;2.90;;;;;;;7.81;84.53;97974.81;101819;1307;74010;-23
2022/01/01 04:20:14;;;;;;;5.80;3.70;;;;;;;7.66;85.08;97974.37;101787;1306;74977;-23
2022/01/01 04:22:40;;;;;;;3.80;2.60;;;;;;;7.39;86.47;97982.20;101781;1308;74231;-23
2022/01/01 04:25:09;;;;;;;4.90;3.30;;;;;;;7.61;85.78;97980.70;101788;1307;61105;-23
2022/01/01 04:27:36;;;;;;;5.00;3.50;;;;;;;7.77;84.81;97987.91;101516;1306;61071;-23
2022/01/01 04:30:03;;;;;;;5.50;2.80;;;;;;;7.60;85.42;97979.16;101778;1307;73685;-23
2022/01/01 04:32:30;;;;;;;4.60;3.40;;;;;;;7.56;85.59;97987.98;101547;1310;76102;-23
2022/01/01 04:34:57;;;;;;;4.20;2.60;;;;;;;7.44;86.24;97984.55;101808;1307;74353;-23
2022/01/01 04:37:24;;;;;;;4.90;2.80;;;;;;;7.86;84.59;97986.10;101751;1311;61210;-23
2022/01/01 04:39:59;;;;;;;3.90;3.00;;;;;;;7.81;84.63;97993.50;101743;1307;61128;-24
2022/01/01 04:42:26;;;;;;;4.70;3.10;;;;;;;7.59;85.23;98000.33;101547;1307;73664;-23
2022/01/01 04:44:54;;;;;;;4.90;3.30;;;;;;;7.39;86.17;98001.70;101708;1305;75926;-24
2022/01/01 04:47:22;;;;;;;5.10;3.60;;;;;;;7.53;85.89;97990.70;101652;1307;74433;-23
2022/01/01 04:49:49;;;;;;;4.50;2.90;;;;;;;7.63;85.24;97993.30;101588;1307;61294;-23
2022/01/01 04:52:17;;;;;;;8.70;4.10;;;;;;;7.64;85.02;98002.17;101614;1307;62056;-23
2022/01/01 04:54:45;;;;;;;4.00;2.80;;;;;;;7.41;85.78;97998.59;101685;1307;74506;-25
2022/01/01 04:57:12;;;;;;;5.60;3.80;;;;;;;7.37;86.43;98003.76;101663;1306;74880;-24
2022/01/01 04:59:40;;;;;;;5.10;3.40;;;;;;;7.55;85.72;98003.12;101816;1310;74333;-24
2022/01/01 05:02:07;;;;;;;6.30;4.30;;;;;;;7.57;85.35;98000.71;101519;1308;61090;-24
2022/01/01 05:04:37;;;;;;;6.20;4.00;;;;;;;7.33;86.58;98011.52;101713;1308;61178;-24
2022/01/01 05:07:07;;;;;;;5.80;4.00;;;;;;;7.29;86.74;98005.65;101747;1307;74427;-24
2022/01/01 05:09:34;;;;;;;5.90;3.60;;;;;;;7.58;85.75;98014.43;101793;1307;74996;-24
2022/01/01 05:12:01;;;;;;;7.10;4.70;;;;;;;7.62;85.24;98018.61;101836;1306;74313;-25
2022/01/01 05:14:29;;;;;;;5.40;3.90;;;;;;;7.29;86.42;98021.39;101375;1310;61651;-24
2022/01/01 05:16:58;;;;;;;6.80;3.50;;;;;;;7.26;86.71;98028.48;101759;1311;61099;-24
2022/01/01 05:19:25;;;;;;;5.10;2.60;;;;;;;7.55;85.69;98018.31;101688;1307;74580;-24
2022/01/01 05:21:56;;;;;;;4.80;3.70;;;;;;;7.60;85.28;98028.39;101654;1307;75892;-25
2022/01/01 05:24:23;;;;;;;7.10;4.70;;;;;;;7.45;85.88;98039.70;101768;1307;74277;-24
2022/01/01 05:26:51;;;;;;;9.40;4.90;;;;;;;7.22;87.01;98040.23;101709;1306;61120;-24
2022/01/01 05:29:17;;;;;;;5.60;3.70;;;;;;;7.30;86.75;98047.86;101791;1309;61074;-24
2022/01/01 05:31:45;;;;;;;5.00;3.60;;;;;;;7.60;85.10;98046.73;101808;1307;73654;-24
2022/01/01 05:34:18;;;;;;;4.80;3.30;;;;;;;7.51;85.57;98055.05;101616;1307;75912;-25
2022/01/01 05:36:45;;;;;;;6.00;4.20;;;;;;;7.24;86.37;98055.45;101802;1307;73667;-24
2022/01/01 05:39:12;;;;;;;5.60;3.80;;;;;;;7.15;87.01;98062.38;101750;1307;63602;-24
2022/01/01 05:41:39;;;;;;;7.00;4.10;;;;;;;7.40;86.07;98067.39;101789;1307;60993;-24
2022/01/01 05:44:06;;;;;;;4.10;3.00;;;;;;;7.49;85.39;98079.62;101268;1307;73834;-24
2022/01/01 05:46:32;;;;;;;4.60;3.40;;;;;;;7.32;85.89;98074.56;101636;1312;76083;-24
2022/01/01 05:49:00;;;;;;;5.10;3.30;;;;;;;7.23;86.22;98084.85;101684;1309;74431;-24
2022/01/01 05:51:27;;;;;;;4.40;3.00;;;;;;;7.26;86.53;98084.80;101807;1308;62722;-24
2022/01/01 05:53:54;;;;;;;4.80;3.20;;;;;;;7.53;85.22;98088.77;101824;1307;61076;-25
2022/01/01 05:56:22;;;;;;;6.40;3.50;;;;;;;7.38;85.84;98101.63;101363;1310;74634;-24
2022/01/01 05:58:49;;;;;;;5.40;3.70;;;;;;;7.27;85.82;98110.92;101750;1306;75872;-24
2022/01/01 06:01:16;;;;;;;4.70;3.00;;;;;;;7.03;87.60;98115.01;101811;1307;73455;-24
2022/01/01 06:03:43;;;;;;;7.10;3.10;;;;;;;7.34;86.32;98116.59;101815;1307;61150;-24
2022/01/01 06:06:10;;;;;;;4.90;3.20;;;;;;;7.47;85.57;98129.53;101785;1307;61856;-24
2022/01/01 06:08:57;;;;;;;3.80;3.30;;;;;;;7.41;85.55;98133.65;101792;1307;74641;-24
2022/01/01 06:11:24;;;;;;;5.10;3.80;;;;;;;7.10;86.93;98137.50;101836;1306;75018;-24
2022/01/01 06:13:51;;;;;;;4.10;2.90;;;;;;;6.99;87.53;98141.86;101837;1310;74426;-24
2022/01/01 06:16:19;;;;;;;2.90;2.50;;;;;;;7.24;86.40;98144.02;101570;1307;61234;-24
2022/01/01 06:18:46;;;;;;;5.10;3.00;;;;;;;7.32;85.50;98148.86;101807;1305;61097;-24
2022/01/01 06:21:14;;;;;;;4.50;3.00;;;;;;;7.18;85.92;98153.13;101792;1305;74587;-24
2022/01/01 06:23:41;;;;;;;3.90;3.00;;;;;;;6.95;86.99;98160.36;101760;1307;75695;-24
2022/01/01 06:26:07;;;;;;;4.90;3.50;;;;;;;7.12;86.33;98166.19;101537;1307;73388;-24
2022/01/01 06:28:35;;;;;;;4.60;3.10;;;;;;;7.31;85.60;98174.49;101787;1307;61133;-24
2022/01/01 06:31:02;;;;;;;4.20;2.50;;;;;;;7.13;86.25;98175.77;101785;1307;62050;-24
2022/01/01 06:33:29;;;;;;;4.60;3.70;;;;;;;7.01;86.74;98188.83;101795;1310;74678;-24
2022/01/01 06:35:57;;;;;;;4.40;3.00;;;;;;;7.01;86.74;98197.58;101807;1307;76265;-24
2022/01/01 06:38:35;;;;;;;4.80;2.80;;;;;;;7.29;85.25;98201.06;101742;1307;74283;-24
2022/01/01 06:41:03;;;;;;;2.90;2.30;;;;;;;7.23;85.40;98207.45;101500;1310;61114;-24
2022/01/01 06:43:31;;;;;;;4.40;3.30;;;;;;;6.90;86.57;98210.40;101729;1307;61069;-24
2022/01/01 06:45:58;;;;;;;5.00;3.00;;;;;;;6.90;86.64;98208.48;101794;1307;73608;-25
2022/01/01 06:48:25;;;;;;;4.80;2.80;;;;;;;7.23;84.87;98206.74;101322;1310;75097;-24
2022/01/01 06:50:54;;;;;;;4.30;2.50;;;;;;;7.25;84.14;98205.16;101804;1307;74358;-24
2022/01/01 06:53:21;;;;;;;4.00;3.00;;;;;;;6.86;85.31;98215.00;101723;1307;61229;-24
2022/01/01 06:55:47;;;;;;;3.60;2.60;;;;;;;6.73;85.55;98223.50;101807;1308;62500;-24
2022/01/01 06:58:15;;;;;;;3.30;2.30;;;;;;;6.54;86.41;98221.29;101838;1307;73652;-24
2022/01/01 07:00:42;;;;;;;3.70;2.70;;;;;;;6.91;84.51;98227.77;101795;1306;76005;-24
2022/01/01 07:03:12;;;;;;;3.20;2.40;;;;;;;6.95;83.88;98233.46;101786;1310;72778;-24
2022/01/01 07:05:39;;;;;;;3.60;2.60;;;;;;;6.71;85.02;98232.44;101794;1307;61140;-24
2022/01/01 07:08:06;;;;;;;3.30;2.00;;;;;;;6.69;85.13;98234.61;101724;1310;61045;-24
2022/01/01 07:10:33;;;;;;;3.10;2.20;;;;;;;6.62;85.37;98224.86;101816;1307;73629;-24
2022/01/01 07:13:00;;;;;;;4.50;1.90;;;;;;;6.88;84.43;98226.12;101805;1307;76013;-24
2022/01/01 07:15:27;;;;;;;2.70;2.00;;;;;;;6.94;83.49;98231.50;101833;1307;74233;-24
2022/01/01 07:17:54;;;;;;;1.80;1.40;;;;;;;6.91;83.13;98232.73;101863;1307;61147;-25
2022/01/01 07:20:22;;;;;;;1.50;1.10;;;;;;;6.50;83.93;98230.75;101451;1307;61889;-24
2022/01/01 07:22:49;;;;;;;1.30;0.90;;;;;;;6.42;84.03;98241.41;101758;1307;74740;-24
2022/01/01 07:25:16;;;;;;;1.10;0.80;;;;;;;6.65;82.96;98231.45;101812;1306;75581;-24
2022/01/01 07:27:44;;;;;;;2.10;0.70;;;;;;;6.90;81.87;98237.98;101804;1307;74288;-24
2022/01/01 07:30:12;;;;;;;1.10;0.60;;;;;;;6.84;81.89;98239.15;101814;1306;61125;-24
2022/01/01 07:32:46;;;;;;;0.80;0.80;;;;;;;6.71;82.40;98243.79;101549;1307;61143;-24
2022/01/01 07:35:14;;;;;;;0.80;0.50;;;;;;;6.71;82.51;98248.61;101543;1310;72914;-24
2022/01/01 07:37:41;;;;;;;3.40;1.00;;;;;;;7.10;80.97;98249.59;101506;1301;74970;-24
2022/01/01 07:40:11;;;;;;;1.10;0.60;;;;;;;7.07;80.86;98252.33;101797;1308;74408;-24
2022/01/01 07:42:38;;;;;;;1.80;0.90;;;;;;;6.79;81.88;98253.73;101528;1310;61104;-24
2022/01/01 07:45:06;;;;;;;3.00;0.70;;;;;;;6.51;83.15;98253.64;101770;1306;61861;-24
2022/01/01 07:47:35;;;;;;;2.50;1.10;;;;;;;6.61;83.26;98257.46;101373;1310;75501;-24
2022/01/01 07:50:04;;;;;;;0.80;0.60;;;;;;;6.90;81.79;98257.00;101814;1307;76321;-24
2022/01/01 07:52:33;;;;;;;0.40;0.40;;;;;;;6.82;81.75;98262.45;101548;1308;74411;-25
2022/01/01 07:55:00;;;;;;;0.50;0.40;;;;;;;6.68;81.96;98259.18;101809;1307;61078;-25
2022/01/01 07:57:28;;;;;;;1.50;0.90;;;;;;;6.51;82.77;98264.30;101823;1307;62014;-25
2022/01/01 07:59:56;;;;;;;0.60;0.60;;;;;;;6.51;83.29;98275.55;101743;1307;75515;-26
2022/01/01 08:02:23;;;;;;;1.40;0.70;;;;;;;6.75;82.56;98282.68;101798;1307;75002;-25
2022/01/01 08:04:51;;;;;;;1.20;0.70;;;;;;;6.66;82.75;98279.56;101799;1306;73346;-25
2022/01/01 08:07:18;;;;;;;1.00;0.80;;;;;;;6.41;84.12;98295.24;101764;1305;61122;-25
2022/01/01 08:10:05;;;;;;;2.10;0.60;;;;;;;6.40;84.46;98299.95;101768;1307;61497;-25
2022/01/01 08:12:33;;;;;;;1.60;0.70;;;;;;;6.58;84.07;98304.82;101337;1310;75527;-25
2022/01/01 08:15:01;;;;;;;1.80;0.90;;;;;;;6.60;84.10;98313.65;101801;1307;75772;-25
2022/01/01 08:17:28;;;;;;;1.20;1.00;;;;;;;6.36;84.85;98315.94;101489;1310;74216;-25
2022/01/01 08:19:55;;;;;;;1.50;0.80;;;;;;;6.11;86.33;98317.62;101772;1306;61130;-27
2022/01/01 08:22:22;;;;;;;1.50;1.20;;;;;;;6.33;85.56;98321.39;101712;1307;61050;-25
2022/01/01 08:24:49;;;;;;;1.70;1.00;;;;;;;6.44;84.57;98324.99;101802;1307;74612;-25
2022/01/01 08:27:16;;;;;;;1.60;1.20;;;;;;;6.39;84.66;98316.92;101787;1307;74100;-25
2022/01/01 08:29:43;;;;;;;1.90;1.10;;;;;;;6.27;84.77;98331.77;101891;1307;74422;-25
2022/01/01 08:32:11;;;;;;;1.10;0.80;;;;;;;6.11;85.46;98330.58;101527;1307;61959;-25
2022/01/01 08:34:39;;;;;;;2.40;1.00;;;;;;;6.28;85.00;98331.39;101809;1306;61079;-25
2022/01/01 08:37:06;;;;;;;1.10;0.90;;;;;;;6.59;83.29;98333.89;101829;1307;74863;-25
2022/01/01 08:39:33;;;;;;;2.60;2.20;;;;;;;6.48;83.51;98333.13;101795;1307;75078;-25
2022/01/01 08:42:00;;;;;;;2.00;1.10;;;;;;;6.23;84.37;98332.91;101685;1307;74603;-25
2022/01/01 08:44:27;;;;;;;1.30;0.90;;;;;;;6.08;85.10;98337.89;101539;1310;63689;-24
2022/01/01 08:46:55;;;;;;;1.00;0.70;;;;;;;6.38;83.95;98340.98;101780;1307;61179;-25
2022/01/01 08:49:22;;;;;;;2.30;0.90;;;;;;;6.60;82.72;98343.45;101779;1307;74736;-24
2022/01/01 08:51:49;;;;;;;1.20;0.80;;;;;;;6.46;83.30;98346.40;101759;1307;75896;-24
2022/01/01 08:54:15;;;;;;;1.50;0.90;;;;;;;6.23;84.35;98355.91;101794;1307;73443;-24
2022/01/01 08:56:42;;;;;;;1.90;1.00;;;;;;;6.24;84.60;98350.10;101712;1307;63941;-25
2022/01/01 08:59:10;;;;;;;1.20;1.00;;;;;;;6.54;83.37;98360.67;101817;1306;61251;-25
2022/01/01 09:01:36;;;;;;;1.30;1.10;;;;;;;6.35;83.76;98365.89;101668;1307;74541;-25
2022/01/01 09:04:04;;;;;;;1.60;1.10;;;;;;;6.36;83.78;98361.69;101696;1310;75849;-24
2022/01/01 09:06:32;;;;;;;1.90;0.90;;;;;;;6.10;85.07;98362.52;101276;1307;74417;-24
2022/01/01 09:08:59;;;;;;;1.30;0.70;;;;;;;6.41;84.16;98357.83;101480;1307;64121;-25
2022/01/01 09:11:54;;;;;;;1.90;1.10;;;;;;;6.81;82.46;98363.95;101423;1310;61188;-25
2022/01/01 09:14:22;;;;;;;1.40;1.10;;;;;;;6.86;82.27;98358.59;101081;1312;75344;-24
2022/01/01 09:16:49;;;;;;;2.40;1.60;;;;;;;6.70;82.80;98362.00;101506;1310;74807;-24
2022/01/01 09:19:19;;;;;;;1.60;1.20;;;;;;;6.40;84.06;98355.84;101466;1310;73864;-25
2022/01/01 09:22:05;;;;;;;1.80;0.90;;;;;;;6.49;84.27;98359.28;101450;1313;64948;-24
2022/01/01 09:24:34;;;;;;;2.90;1.50;;;;;;;6.82;83.07;98359.55;101083;1312;61150;-24
2022/01/01 09:27:02;;;;;;;2.20;1.30;;;;;;;6.80;82.84;98364.73;101452;1313;75515;-25
2022/01/01 09:29:29;;;;;;;2.20;1.10;;;;;;;6.78;82.95;98365.71;101123;1314;75967;-24
2022/01/01 09:31:57;;;;;;;2.70;0.90;;;;;;;6.46;84.17;98358.69;101461;1310;74191;-27
2022/01/01 09:34:25;;;;;;;1.20;0.90;;;;;;;6.40;84.88;98359.98;101479;1312;62392;-24
2022/01/01 09:36:54;;;;;;;1.60;0.80;;;;;;;6.81;83.39;98355.70;101431;1310;61179;-24
2022/01/01 09:39:21;;;;;;;2.10;1.00;;;;;;;6.91;83.10;98360.11;101460;1310;75290;-24
2022/01/01 09:41:49;;;;;;;2.10;1.00;;;;;;;6.91;83.29;98355.43;101441;1310;75136;-24
2022/01/01 09:44:23;;;;;;;1.10;1.00;;;;;;;6.81;82.91;98350.86;101559;1307;72500;-25
2022/01/01 09:46:51;;;;;;;0.60;0.50;;;;;;;6.59;83.59;98356.44;101784;1307;63052;-24
2022/01/01 09:49:18;;;;;;;0.70;0.50;;;;;;;6.89;83.16;98360.24;101800;1307;61880;-24
2022/01/01 09:51:46;;;;;;;1.50;0.90;;;;;;;7.31;81.34;98359.09;101861;1306;75326;-24
2022/01/01 09:54:13;;;;;;;1.60;0.90;;;;;;;7.19;81.15;98356.36;101844;1307;75931;-25
2022/01/01 09:56:40;;;;;;;1.70;1.00;;;;;;;7.01;81.71;98348.79;101787;1306;74256;-24
2022/01/01 09:59:07;;;;;;;0.70;0.60;;;;;;;6.82;82.69;98338.40;101807;1307;61196;-24
2022/01/01 10:01:35;;;;;;;0.80;0.50;;;;;;;7.04;82.01;98344.27;101771;1310;61098;-24
2022/01/01 10:04:11;;;;;;;0.80;0.70;;;;;;;7.53;80.67;98341.48;101824;1307;75509;-25
2022/01/01 10:06:38;;;;;;;0.80;0.50;;;;;;;7.48;79.95;98334.79;101381;1310;75870;-24
2022/01/01 10:09:09;;;;;;;0.80;0.60;;;;;;;7.44;80.03;98334.59;101829;1306;74400;-25
2022/01/01 10:11:36;;;;;;;0.40;0.40;;;;;;;7.02;81.51;98334.55;101738;1307;61909;-25
2022/01/01 10:14:39;;;;;;;1.00;0.50;;;;;;;7.12;81.39;98337.29;101753;1307;61734;-25
2022/01/01 10:17:23;;;;;;;0.60;0.50;;;;;;;7.57;79.66;98338.23;101535;1306;75360;-23
2022/01/01 10:19:51;;;;;;;1.50;0.60;;;;;;;7.53;79.14;98335.79;101375;1313;76097;-22
2022/01/01 10:22:22;;;;;;;0.60;0.60;;;;;;;7.36;79.99;98339.73;101516;1313;73326;-23
2022/01/01 10:27:57;;;;;;;0.90;0.50;;;;;;;7.10;80.94;98335.52;101605;1307;62102;-23
2022/01/01 10:30:35;;;;;;;0.60;0.50;;;;;;;7.57;79.41;98330.47;101563;1308;75480;-23
2022/01/01 10:33:15;;;;;;;1.10;0.60;;;;;;;7.59;78.90;98324.71;101617;1310;75954;-23
2022/01/01 10:35:49;;;;;;;0.30;0.30;;;;;;;7.38;79.64;98322.65;101311;1310;73105;-23
2022/01/01 10:38:18;;;;;;;2.40;0.70;;;;;;;7.26;79.88;98330.13;101535;1310;61064;-23
2022/01/01 10:40:45;;;;;;;0.50;0.40;;;;;;;7.08;80.70;98328.75;101501;1310;61524;-23
2022/01/01 10:43:16;;;;;;;0.90;0.50;;;;;;;7.40;79.59;98325.23;101556;1307;75133;-23
2022/01/01 10:45:47;;;;;;;0.40;0.40;;;;;;;7.34;79.54;98337.73;101731;1306;74940;-23
2022/01/01 10:50:46;;;;;;;0.40;0.30;;;;;;;7.06;80.48;98334.08;101478;1307;61100;-23
2022/01/01 10:53:20;;;;;;;1.00;0.50;;;;;;;6.95;81.00;98333.71;101475;1310;61187;-23
2022/01/01 10:55:51;;;;;;;0.90;0.60;;;;;;;7.26;80.03;98329.10;101488;1310;73849;-23
2022/01/01 10:58:22;;;;;;;0.60;0.50;;;;;;;7.35;79.70;98334.08;101394;1307;76129;-23
2022/01/01 11:00:50;;;;;;;0.40;0.30;;;;;;;7.32;79.99;98332.39;101586;1310;74531;-23
2022/01/01 11:03:19;;;;;;;0.80;0.50;;;;;;;7.15;80.85;98325.95;101642;1307;60988;-23
2022/01/01 11:05:47;;;;;;;0.60;0.60;;;;;;;7.03;81.37;98320.00;101644;1307;61494;-23
2022/01/01 11:08:14;;;;;;;0.60;0.60;;;;;;;7.35;80.78;98321.41;101636;1307;74582;-23
2022/01/01 11:10:46;;;;;;;0.40;0.40;;;;;;;7.34;80.28;98313.05;101746;1307;74921;-23
2022/01/01 11:13:14;;;;;;;1.70;0.90;;;;;;;7.51;79.77;98316.41;101803;1306;73466;-23
2022/01/01 11:15:41;;;;;;;0.80;0.60;;;;;;;7.09;81.46;98314.02;101814;1307;61121;-23
2022/01/01 11:18:09;;;;;;;0.70;0.60;;;;;;;7.03;82.05;98318.63;101610;1307;60974;-24
2022/01/01 11:20:36;;;;;;;1.10;0.60;;;;;;;7.25;81.13;98309.30;101330;1313;75362;-23
2022/01/01 11:23:05;;;;;;;0.50;0.50;;;;;;;7.47;80.22;98304.64;101717;1307;75893;-23
2022/01/01 11:25:33;;;;;;;0.50;0.50;;;;;;;7.45;79.94;98311.84;101430;1309;75075;-23
2022/01/01 11:28:03;;;;;;;1.80;0.90;;;;;;;7.39;79.95;98314.10;101815;1307;61128;-24
2022/01/01 11:30:35;;;;;;;0.90;0.50;;;;;;;7.15;80.81;98319.22;101501;1307;61187;-24
2022/01/01 11:33:04;;;;;;;0.30;0.30;;;;;;;7.27;80.15;98318.63;101607;1307;75639;-24
2022/01/01 11:35:44;;;;;;;0.20;0.20;;;;;;;7.52;78.98;98318.36;101817;1311;75903;-26
2022/01/01 11:38:16;;;;;;;1.40;0.60;;;;;;;7.59;78.65;98320.81;101554;1307;73620;-25
2022/01/01 11:40:57;;;;;;;1.30;0.60;;;;;;;7.25;79.89;98315.33;101124;1310;61215;-26
2022/01/01 11:43:40;;;;;;;1.30;0.40;;;;;;;6.89;80.99;98315.55;101470;1310;61909;-27
2022/01/01 11:46:27;;;;;;;1.40;0.50;;;;;;;7.32;79.75;98312.86;101469;1307;74582;-25
2022/01/01 11:48:55;;;;;;;0.90;0.50;;;;;;;7.45;78.58;98305.64;101337;1307;74809;-24
2022/01/01 11:51:24;;;;;;;0.50;0.40;;;;;;;7.51;77.93;98297.05;101495;1307;73418;-26
2022/01/01 11:54:23;;;;;;;1.00;0.30;;;;;;;7.37;78.35;98296.64;101613;1308;62416;-23
2022/01/01 11:56:50;;;;;;;0.50;0.40;;;;;;;7.20;79.17;98303.30;101495;1307;61135;-24